sensor_id;sensor_type;location;lat;lon;timestamp;pressure;altitude;pressure_sealevel;temperature
37536;BMP180;23379;51.554;6.736;2023-11-21T00:00:32;100506.00;;;7.00
37536;BMP180;23379;51.554;6.736;2023-11-21T00:02:57;100504.00;;;6.70
37536;BMP180;23379;51.554;6.736;2023-11-21T00:05:23;100463.00;;;7.00
37536;BMP180;23379;51.554;6.736;2023-11-21T00:07:48;100499.00;;;7.10
37536;BMP180;23379;51.554;6.736;2023-11-21T00:10:14;100522.00;;;7.10
37536;BMP180;23379;51.554;6.736;2023-11-21T00:12:39;100510.00;;;7.10
37536;BMP180;23379;51.554;6.736;2023-11-21T00:15:08;100514.00;;;7.00
37536;BMP180;23379;51.554;6.736;2023-11-21T00:17:37;100512.00;;;7.20
37536;BMP180;23379;51.554;6.736;2023-11-21T00:20:03;100519.00;;;7.30
37536;BMP180;23379;51.554;6.736;2023-11-21T00:22:32;100502.00;;;7.40
37536;BMP180;23379;51.554;6.736;2023-11-21T00:24:57;100529.00;;;7.20
37536;BMP180;23379;51.554;6.736;2023-11-21T00:27:23;100530.00;;;7.10
37536;BMP180;23379;51.554;6.736;2023-11-21T00:29:48;100513.00;;;7.30
37536;BMP180;23379;51.554;6.736;2023-11-21T00:32:13;100497.00;;;7.10
37536;BMP180;23379;51.554;6.736;2023-11-21T00:34:38;100511.00;;;7.20
37536;BMP180;23379;51.554;6.736;2023-11-21T00:37:05;100513.00;;;7.20
37536;BMP180;23379;51.554;6.736;2023-11-21T00:39:30;100509.00;;;7.20
37536;BMP180;23379;51.554;6.736;2023-11-21T00:41:55;100500.00;;;7.20
37536;BMP180;23379;51.554;6.736;2023-11-21T00:44:21;100511.00;;;7.20
37536;BMP180;23379;51.554;6.736;2023-11-21T00:46:46;100509.00;;;7.20
37536;BMP180;23379;51.554;6.736;2023-11-21T00:49:11;100513.00;;;7.30
37536;BMP180;23379;51.554;6.736;2023-11-21T00:51:36;100508.00;;;7.30
37536;BMP180;23379;51.554;6.736;2023-11-21T00:54:02;100516.00;;;7.30
37536;BMP180;23379;51.554;6.736;2023-11-21T00:56:28;100538.00;;;7.40
37536;BMP180;23379;51.554;6.736;2023-11-21T00:58:53;100523.00;;;7.60
37536;BMP180;23379;51.554;6.736;2023-11-21T01:01:19;100529.00;;;7.50
37536;BMP180;23379;51.554;6.736;2023-11-21T01:03:47;100502.00;;;7.50
37536;BMP180;23379;51.554;6.736;2023-11-21T01:06:14;100531.00;;;7.50
37536;BMP180;23379;51.554;6.736;2023-11-21T01:08:39;100525.00;;;7.60
37536;BMP180;23379;51.554;6.736;2023-11-21T01:11:05;100533.00;;;7.60
37536;BMP180;23379;51.554;6.736;2023-11-21T01:13:33;100494.00;;;7.50
37536;BMP180;23379;51.554;6.736;2023-11-21T01:15:59;100524.00;;;7.70
37536;BMP180;23379;51.554;6.736;2023-11-21T01:18:24;100534.00;;;7.90
37536;BMP180;23379;51.554;6.736;2023-11-21T01:20:51;100548.00;;;8.00
37536;BMP180;23379;51.554;6.736;2023-11-21T01:23:18;100545.00;;;8.10
37536;BMP180;23379;51.554;6.736;2023-11-21T01:25:43;100558.00;;;8.10
37536;BMP180;23379;51.554;6.736;2023-11-21T01:28:08;100552.00;;;8.20
37536;BMP180;23379;51.554;6.736;2023-11-21T01:30:33;100545.00;;;8.20
37536;BMP180;23379;51.554;6.736;2023-11-21T01:32:59;100552.00;;;8.30
37536;BMP180;23379;51.554;6.736;2023-11-21T01:35:24;100546.00;;;8.30
37536;BMP180;23379;51.554;6.736;2023-11-21T01:37:49;100566.00;;;8.40
37536;BMP180;23379;51.554;6.736;2023-11-21T01:40:15;100562.00;;;8.50
37536;BMP180;23379;51.554;6.736;2023-11-21T01:42:41;100569.00;;;8.60
37536;BMP180;23379;51.554;6.736;2023-11-21T01:45:09;100571.00;;;8.30
37536;BMP180;23379;51.554;6.736;2023-11-21T01:47:35;100565.00;;;8.30
37536;BMP180;23379;51.554;6.736;2023-11-21T01:50:02;100557.00;;;8.20
37536;BMP180;23379;51.554;6.736;2023-11-21T01:52:30;100543.00;;;8.50
37536;BMP180;23379;51.554;6.736;2023-11-21T01:54:55;100558.00;;;8.30
37536;BMP180;23379;51.554;6.736;2023-11-21T01:57:21;100568.00;;;8.50
37536;BMP180;23379;51.554;6.736;2023-11-21T01:59:48;100551.00;;;8.50
37536;BMP180;23379;51.554;6.736;2023-11-21T02:02:14;100570.00;;;8.40
37536;BMP180;23379;51.554;6.736;2023-11-21T02:04:39;100550.00;;;8.50
37536;BMP180;23379;51.554;6.736;2023-11-21T02:07:04;100569.00;;;8.50
37536;BMP180;23379;51.554;6.736;2023-11-21T02:09:33;100563.00;;;8.60
37536;BMP180;23379;51.554;6.736;2023-11-21T02:11:59;100576.00;;;8.50
37536;BMP180;23379;51.554;6.736;2023-11-21T02:14:28;100572.00;;;8.60
37536;BMP180;23379;51.554;6.736;2023-11-21T02:16:54;100576.00;;;8.50
37536;BMP180;23379;51.554;6.736;2023-11-21T02:19:21;100563.00;;;8.60
37536;BMP180;23379;51.554;6.736;2023-11-21T02:21:56;100573.00;;;8.70
37536;BMP180;23379;51.554;6.736;2023-11-21T02:24:24;100570.00;;;8.50
37536;BMP180;23379;51.554;6.736;2023-11-21T02:26:50;100593.00;;;8.70
37536;BMP180;23379;51.554;6.736;2023-11-21T02:29:19;100582.00;;;8.80
37536;BMP180;23379;51.554;6.736;2023-11-21T02:31:47;100594.00;;;8.80
37536;BMP180;23379;51.554;6.736;2023-11-21T02:34:14;100594.00;;;8.80
37536;BMP180;23379;51.554;6.736;2023-11-21T02:36:40;100569.00;;;9.00
37536;BMP180;23379;51.554;6.736;2023-11-21T02:39:05;100574.00;;;9.00
37536;BMP180;23379;51.554;6.736;2023-11-21T02:41:32;100591.00;;;8.90
37536;BMP180;23379;51.554;6.736;2023-11-21T02:43:58;100592.00;;;8.90
37536;BMP180;23379;51.554;6.736;2023-11-21T02:46:23;100594.00;;;8.90
37536;BMP180;23379;51.554;6.736;2023-11-21T02:48:48;100583.00;;;8.90
37536;BMP180;23379;51.554;6.736;2023-11-21T02:51:14;100586.00;;;8.90
37536;BMP180;23379;51.554;6.736;2023-11-21T02:53:40;100597.00;;;8.90
37536;BMP180;23379;51.554;6.736;2023-11-21T02:56:06;100598.00;;;9.00
37536;BMP180;23379;51.554;6.736;2023-11-21T02:58:32;100606.00;;;8.90
37536;BMP180;23379;51.554;6.736;2023-11-21T03:00:57;100596.00;;;9.00
37536;BMP180;23379;51.554;6.736;2023-11-21T03:03:23;100600.00;;;9.00
37536;BMP180;23379;51.554;6.736;2023-11-21T03:05:49;100606.00;;;9.10
37536;BMP180;23379;51.554;6.736;2023-11-21T03:08:15;100597.00;;;9.10
37536;BMP180;23379;51.554;6.736;2023-11-21T03:10:40;100610.00;;;9.10
37536;BMP180;23379;51.554;6.736;2023-11-21T03:13:05;100601.00;;;9.10
37536;BMP180;23379;51.554;6.736;2023-11-21T03:15:31;100601.00;;;9.10
37536;BMP180;23379;51.554;6.736;2023-11-21T03:17:58;100606.00;;;9.10
37536;BMP180;23379;51.554;6.736;2023-11-21T03:20:23;100614.00;;;9.10
37536;BMP180;23379;51.554;6.736;2023-11-21T03:22:48;100630.00;;;9.10
37536;BMP180;23379;51.554;6.736;2023-11-21T03:25:15;100622.00;;;9.10
37536;BMP180;23379;51.554;6.736;2023-11-21T03:27:42;100617.00;;;9.10
37536;BMP180;23379;51.554;6.736;2023-11-21T03:30:09;100609.00;;;9.10
37536;BMP180;23379;51.554;6.736;2023-11-21T03:32:34;100618.00;;;9.10
37536;BMP180;23379;51.554;6.736;2023-11-21T03:35:00;100620.00;;;9.10
37536;BMP180;23379;51.554;6.736;2023-11-21T03:37:27;100629.00;;;9.00
37536;BMP180;23379;51.554;6.736;2023-11-21T03:39:52;100611.00;;;9.10
37536;BMP180;23379;51.554;6.736;2023-11-21T03:42:18;100630.00;;;8.90
37536;BMP180;23379;51.554;6.736;2023-11-21T03:44:43;100612.00;;;9.10
37536;BMP180;23379;51.554;6.736;2023-11-21T03:47:08;100637.00;;;9.20
37536;BMP180;23379;51.554;6.736;2023-11-21T03:49:34;100638.00;;;9.20
37536;BMP180;23379;51.554;6.736;2023-11-21T03:51:59;100643.00;;;9.30
37536;BMP180;23379;51.554;6.736;2023-11-21T03:54:24;100647.00;;;9.10
37536;BMP180;23379;51.554;6.736;2023-11-21T03:56:50;100653.00;;;9.10
37536;BMP180;23379;51.554;6.736;2023-11-21T03:59:15;100637.00;;;9.10
37536;BMP180;23379;51.554;6.736;2023-11-21T04:01:40;100654.00;;;9.30
37536;BMP180;23379;51.554;6.736;2023-11-21T04:04:06;100656.00;;;9.30
37536;BMP180;23379;51.554;6.736;2023-11-21T04:06:31;100656.00;;;9.10
37536;BMP180;23379;51.554;6.736;2023-11-21T04:08:58;100673.00;;;9.00
37536;BMP180;23379;51.554;6.736;2023-11-21T04:11:23;100662.00;;;9.10
37536;BMP180;23379;51.554;6.736;2023-11-21T04:13:48;100655.00;;;9.20
37536;BMP180;23379;51.554;6.736;2023-11-21T04:16:14;100671.00;;;9.20
37536;BMP180;23379;51.554;6.736;2023-11-21T04:18:39;100649.00;;;9.20
37536;BMP180;23379;51.554;6.736;2023-11-21T04:21:05;100664.00;;;9.10
37536;BMP180;23379;51.554;6.736;2023-11-21T04:23:30;100650.00;;;9.20
37536;BMP180;23379;51.554;6.736;2023-11-21T04:25:57;100679.00;;;9.30
37536;BMP180;23379;51.554;6.736;2023-11-21T04:28:23;100654.00;;;9.20
37536;BMP180;23379;51.554;6.736;2023-11-21T04:30:49;100650.00;;;9.10
37536;BMP180;23379;51.554;6.736;2023-11-21T04:33:15;100652.00;;;9.20
37536;BMP180;23379;51.554;6.736;2023-11-21T04:35:41;100664.00;;;9.00
37536;BMP180;23379;51.554;6.736;2023-11-21T04:38:06;100659.00;;;9.10
37536;BMP180;23379;51.554;6.736;2023-11-21T04:40:32;100668.00;;;9.20
37536;BMP180;23379;51.554;6.736;2023-11-21T04:42:57;100663.00;;;9.20
37536;BMP180;23379;51.554;6.736;2023-11-21T04:45:22;100668.00;;;9.00
37536;BMP180;23379;51.554;6.736;2023-11-21T04:47:48;100683.00;;;8.90
37536;BMP180;23379;51.554;6.736;2023-11-21T04:50:13;100670.00;;;8.90
37536;BMP180;23379;51.554;6.736;2023-11-21T04:52:39;100689.00;;;8.60
37536;BMP180;23379;51.554;6.736;2023-11-21T04:55:04;100675.00;;;8.50
37536;BMP180;23379;51.554;6.736;2023-11-21T04:57:31;100678.00;;;8.70
37536;BMP180;23379;51.554;6.736;2023-11-21T04:59:57;100690.00;;;8.70
37536;BMP180;23379;51.554;6.736;2023-11-21T05:02:22;100698.00;;;9.00
37536;BMP180;23379;51.554;6.736;2023-11-21T05:04:48;100695.00;;;9.10
37536;BMP180;23379;51.554;6.736;2023-11-21T05:07:13;100701.00;;;8.90
37536;BMP180;23379;51.554;6.736;2023-11-21T05:09:48;100679.00;;;9.00
37536;BMP180;23379;51.554;6.736;2023-11-21T05:12:13;100705.00;;;9.10
37536;BMP180;23379;51.554;6.736;2023-11-21T05:14:39;100703.00;;;9.10
37536;BMP180;23379;51.554;6.736;2023-11-21T05:17:05;100703.00;;;9.20
37536;BMP180;23379;51.554;6.736;2023-11-21T05:19:30;100691.00;;;9.00
37536;BMP180;23379;51.554;6.736;2023-11-21T05:21:55;100710.00;;;9.20
37536;BMP180;23379;51.554;6.736;2023-11-21T05:24:21;100711.00;;;9.10
37536;BMP180;23379;51.554;6.736;2023-11-21T05:26:46;100713.00;;;9.20
37536;BMP180;23379;51.554;6.736;2023-11-21T05:29:11;100728.00;;;9.30
37536;BMP180;23379;51.554;6.736;2023-11-21T05:31:37;100726.00;;;9.20
37536;BMP180;23379;51.554;6.736;2023-11-21T05:34:03;100740.00;;;9.30
37536;BMP180;23379;51.554;6.736;2023-11-21T05:36:30;100731.00;;;9.30
37536;BMP180;23379;51.554;6.736;2023-11-21T05:38:55;100741.00;;;9.20
37536;BMP180;23379;51.554;6.736;2023-11-21T05:41:21;100737.00;;;9.10
37536;BMP180;23379;51.554;6.736;2023-11-21T05:43:46;100747.00;;;9.30
37536;BMP180;23379;51.554;6.736;2023-11-21T05:46:11;100738.00;;;9.30
37536;BMP180;23379;51.554;6.736;2023-11-21T05:48:38;100755.00;;;9.10
37536;BMP180;23379;51.554;6.736;2023-11-21T05:51:05;100741.00;;;9.30
37536;BMP180;23379;51.554;6.736;2023-11-21T05:53:31;100729.00;;;9.10
37536;BMP180;23379;51.554;6.736;2023-11-21T05:55:57;100761.00;;;9.20
37536;BMP180;23379;51.554;6.736;2023-11-21T05:58:22;100740.00;;;9.10
37536;BMP180;23379;51.554;6.736;2023-11-21T06:00:49;100740.00;;;9.40
37536;BMP180;23379;51.554;6.736;2023-11-21T06:03:14;100767.00;;;9.20
37536;BMP180;23379;51.554;6.736;2023-11-21T06:05:39;100769.00;;;9.30
37536;BMP180;23379;51.554;6.736;2023-11-21T06:08:05;100761.00;;;9.40
37536;BMP180;23379;51.554;6.736;2023-11-21T06:10:31;100778.00;;;9.50
37536;BMP180;23379;51.554;6.736;2023-11-21T06:12:57;100782.00;;;9.40
37536;BMP180;23379;51.554;6.736;2023-11-21T06:15:23;100783.00;;;9.30
37536;BMP180;23379;51.554;6.736;2023-11-21T06:17:48;100783.00;;;9.40
37536;BMP180;23379;51.554;6.736;2023-11-21T06:20:20;100802.00;;;9.50
37536;BMP180;23379;51.554;6.736;2023-11-21T06:22:48;100797.00;;;9.50
37536;BMP180;23379;51.554;6.736;2023-11-21T06:25:14;100815.00;;;9.20
37536;BMP180;23379;51.554;6.736;2023-11-21T06:27:40;100813.00;;;9.20
37536;BMP180;23379;51.554;6.736;2023-11-21T06:30:08;100801.00;;;9.30
37536;BMP180;23379;51.554;6.736;2023-11-21T06:32:37;100780.00;;;9.30
37536;BMP180;23379;51.554;6.736;2023-11-21T06:35:04;100803.00;;;9.40
37536;BMP180;23379;51.554;6.736;2023-11-21T06:37:31;100824.00;;;9.40
37536;BMP180;23379;51.554;6.736;2023-11-21T06:39:57;100821.00;;;9.40
37536;BMP180;23379;51.554;6.736;2023-11-21T06:42:23;100822.00;;;9.50
37536;BMP180;23379;51.554;6.736;2023-11-21T06:44:49;100829.00;;;9.40
37536;BMP180;23379;51.554;6.736;2023-11-21T06:47:17;100844.00;;;9.40
37536;BMP180;23379;51.554;6.736;2023-11-21T06:49:43;100849.00;;;9.30
37536;BMP180;23379;51.554;6.736;2023-11-21T06:52:08;100835.00;;;9.40
37536;BMP180;23379;51.554;6.736;2023-11-21T06:54:33;100834.00;;;9.40
37536;BMP180;23379;51.554;6.736;2023-11-21T06:56:59;100832.00;;;9.30
37536;BMP180;23379;51.554;6.736;2023-11-21T06:59:25;100856.00;;;9.30
37536;BMP180;23379;51.554;6.736;2023-11-21T07:01:50;100834.00;;;9.10
37536;BMP180;23379;51.554;6.736;2023-11-21T07:04:16;100863.00;;;9.10
37536;BMP180;23379;51.554;6.736;2023-11-21T07:06:41;100865.00;;;9.10
37536;BMP180;23379;51.554;6.736;2023-11-21T07:09:08;100851.00;;;9.10
37536;BMP180;23379;51.554;6.736;2023-11-21T07:11:34;100868.00;;;9.30
37536;BMP180;23379;51.554;6.736;2023-11-21T07:14:00;100863.00;;;9.40
37536;BMP180;23379;51.554;6.736;2023-11-21T07:16:30;100864.00;;;9.50
37536;BMP180;23379;51.554;6.736;2023-11-21T07:18:55;100867.00;;;9.30
37536;BMP180;23379;51.554;6.736;2023-11-21T07:21:21;100868.00;;;9.40
37536;BMP180;23379;51.554;6.736;2023-11-21T07:23:46;100860.00;;;9.50
37536;BMP180;23379;51.554;6.736;2023-11-21T07:26:12;100857.00;;;9.40
37536;BMP180;23379;51.554;6.736;2023-11-21T07:28:37;100859.00;;;9.10
37536;BMP180;23379;51.554;6.736;2023-11-21T07:31:03;100869.00;;;9.40
37536;BMP180;23379;51.554;6.736;2023-11-21T07:33:28;100832.00;;;9.20
37536;BMP180;23379;51.554;6.736;2023-11-21T07:35:54;100869.00;;;9.10
37536;BMP180;23379;51.554;6.736;2023-11-21T07:38:19;100873.00;;;9.20
37536;BMP180;23379;51.554;6.736;2023-11-21T07:40:44;100878.00;;;9.30
37536;BMP180;23379;51.554;6.736;2023-11-21T07:43:10;100874.00;;;9.50
37536;BMP180;23379;51.554;6.736;2023-11-21T07:45:36;100890.00;;;9.40
37536;BMP180;23379;51.554;6.736;2023-11-21T07:48:01;100890.00;;;9.60
37536;BMP180;23379;51.554;6.736;2023-11-21T07:50:28;100897.00;;;9.70
37536;BMP180;23379;51.554;6.736;2023-11-21T07:52:54;100887.00;;;9.70
37536;BMP180;23379;51.554;6.736;2023-11-21T07:55:19;100914.00;;;9.40
37536;BMP180;23379;51.554;6.736;2023-11-21T07:57:45;100926.00;;;9.30
37536;BMP180;23379;51.554;6.736;2023-11-21T08:00:11;100923.00;;;9.50
37536;BMP180;23379;51.554;6.736;2023-11-21T08:02:38;100895.00;;;9.50
37536;BMP180;23379;51.554;6.736;2023-11-21T08:05:03;100930.00;;;9.70
37536;BMP180;23379;51.554;6.736;2023-11-21T08:07:29;100907.00;;;9.70
37536;BMP180;23379;51.554;6.736;2023-11-21T08:09:54;100937.00;;;9.70
37536;BMP180;23379;51.554;6.736;2023-11-21T08:12:19;100938.00;;;9.90
37536;BMP180;23379;51.554;6.736;2023-11-21T08:14:45;100941.00;;;9.50
37536;BMP180;23379;51.554;6.736;2023-11-21T08:17:10;100947.00;;;9.70
37536;BMP180;23379;51.554;6.736;2023-11-21T08:19:36;100961.00;;;9.70
37536;BMP180;23379;51.554;6.736;2023-11-21T08:22:03;100952.00;;;9.40
37536;BMP180;23379;51.554;6.736;2023-11-21T08:24:28;100963.00;;;9.70
37536;BMP180;23379;51.554;6.736;2023-11-21T08:26:53;100958.00;;;9.80
37536;BMP180;23379;51.554;6.736;2023-11-21T08:29:19;100943.00;;;10.00
37536;BMP180;23379;51.554;6.736;2023-11-21T08:31:44;100967.00;;;9.80
37536;BMP180;23379;51.554;6.736;2023-11-21T08:34:13;100976.00;;;9.50
37536;BMP180;23379;51.554;6.736;2023-11-21T08:36:43;100960.00;;;9.60
37536;BMP180;23379;51.554;6.736;2023-11-21T08:39:08;100980.00;;;9.40
37536;BMP180;23379;51.554;6.736;2023-11-21T08:41:34;100986.00;;;9.70
37536;BMP180;23379;51.554;6.736;2023-11-21T08:44:00;100983.00;;;9.90
37536;BMP180;23379;51.554;6.736;2023-11-21T08:46:25;100986.00;;;9.50
37536;BMP180;23379;51.554;6.736;2023-11-21T08:48:51;100980.00;;;9.80
37536;BMP180;23379;51.554;6.736;2023-11-21T08:51:17;100985.00;;;10.10
37536;BMP180;23379;51.554;6.736;2023-11-21T08:53:43;100973.00;;;10.10
37536;BMP180;23379;51.554;6.736;2023-11-21T08:56:12;100983.00;;;10.20
37536;BMP180;23379;51.554;6.736;2023-11-21T08:58:39;100989.00;;;10.30
37536;BMP180;23379;51.554;6.736;2023-11-21T09:01:05;100996.00;;;9.90
37536;BMP180;23379;51.554;6.736;2023-11-21T09:03:32;100998.00;;;9.80
37536;BMP180;23379;51.554;6.736;2023-11-21T09:05:59;101013.00;;;10.00
37536;BMP180;23379;51.554;6.736;2023-11-21T09:08:24;101010.00;;;10.20
37536;BMP180;23379;51.554;6.736;2023-11-21T09:10:50;101016.00;;;10.40
37536;BMP180;23379;51.554;6.736;2023-11-21T09:13:15;101010.00;;;10.40
37536;BMP180;23379;51.554;6.736;2023-11-21T09:15:42;101008.00;;;10.50
37536;BMP180;23379;51.554;6.736;2023-11-21T09:18:09;101036.00;;;10.40
37536;BMP180;23379;51.554;6.736;2023-11-21T09:20:35;101026.00;;;10.30
37536;BMP180;23379;51.554;6.736;2023-11-21T09:23:00;101021.00;;;10.50
37536;BMP180;23379;51.554;6.736;2023-11-21T09:25:26;101023.00;;;10.30
37536;BMP180;23379;51.554;6.736;2023-11-21T09:27:51;100998.00;;;10.10
37536;BMP180;23379;51.554;6.736;2023-11-21T09:30:17;101033.00;;;10.00
37536;BMP180;23379;51.554;6.736;2023-11-21T09:32:42;101028.00;;;9.80
37536;BMP180;23379;51.554;6.736;2023-11-21T09:35:10;101023.00;;;9.90
37536;BMP180;23379;51.554;6.736;2023-11-21T09:37:36;101047.00;;;10.10
37536;BMP180;23379;51.554;6.736;2023-11-21T09:40:04;101042.00;;;10.20
37536;BMP180;23379;51.554;6.736;2023-11-21T09:42:35;101061.00;;;10.50
37536;BMP180;23379;51.554;6.736;2023-11-21T09:45:07;101053.00;;;10.50
37536;BMP180;23379;51.554;6.736;2023-11-21T09:47:38;101064.00;;;10.70
37536;BMP180;23379;51.554;6.736;2023-11-21T09:50:04;101065.00;;;10.70
37536;BMP180;23379;51.554;6.736;2023-11-21T09:52:39;101071.00;;;11.00
37536;BMP180;23379;51.554;6.736;2023-11-21T09:55:09;101060.00;;;11.10
37536;BMP180;23379;51.554;6.736;2023-11-21T09:57:38;101060.00;;;11.00
37536;BMP180;23379;51.554;6.736;2023-11-21T10:00:04;101062.00;;;11.10
37536;BMP180;23379;51.554;6.736;2023-11-21T10:02:32;101069.00;;;11.00
37536;BMP180;23379;51.554;6.736;2023-11-21T10:05:02;101067.00;;;11.20
37536;BMP180;23379;51.554;6.736;2023-11-21T10:07:28;101068.00;;;11.00
37536;BMP180;23379;51.554;6.736;2023-11-21T10:09:58;101026.00;;;11.20
37536;BMP180;23379;51.554;6.736;2023-11-21T10:12:26;101039.00;;;11.10
37536;BMP180;23379;51.554;6.736;2023-11-21T10:14:53;101049.00;;;11.40
37536;BMP180;23379;51.554;6.736;2023-11-21T10:17:23;101026.00;;;11.20
37536;BMP180;23379;51.554;6.736;2023-11-21T10:19:52;101024.00;;;11.00
37536;BMP180;23379;51.554;6.736;2023-11-21T10:22:19;101047.00;;;11.10
37536;BMP180;23379;51.554;6.736;2023-11-21T10:24:45;101078.00;;;11.40
37536;BMP180;23379;51.554;6.736;2023-11-21T10:27:11;101045.00;;;11.10
37536;BMP180;23379;51.554;6.736;2023-11-21T10:29:39;101054.00;;;11.40
37536;BMP180;23379;51.554;6.736;2023-11-21T10:32:05;101101.00;;;11.50
37536;BMP180;23379;51.554;6.736;2023-11-21T10:34:31;101025.00;;;11.30
37536;BMP180;23379;51.554;6.736;2023-11-21T10:36:57;101062.00;;;11.10
37536;BMP180;23379;51.554;6.736;2023-11-21T10:39:24;101122.00;;;11.30
37536;BMP180;23379;51.554;6.736;2023-11-21T10:41:54;101040.00;;;10.90
37536;BMP180;23379;51.554;6.736;2023-11-21T10:44:20;101041.00;;;11.00
37536;BMP180;23379;51.554;6.736;2023-11-21T10:46:50;101122.00;;;10.50
37536;BMP180;23379;51.554;6.736;2023-11-21T10:49:20;101089.00;;;10.70
37536;BMP180;23379;51.554;6.736;2023-11-21T10:51:46;101131.00;;;10.80
37536;BMP180;23379;51.554;6.736;2023-11-21T10:54:17;101081.00;;;10.70
37536;BMP180;23379;51.554;6.736;2023-11-21T10:56:43;101160.00;;;11.10
37536;BMP180;23379;51.554;6.736;2023-11-21T10:59:12;101100.00;;;11.00
37536;BMP180;23379;51.554;6.736;2023-11-21T11:01:45;101129.00;;;10.80
37536;BMP180;23379;51.554;6.736;2023-11-21T11:04:14;101073.00;;;11.00
37536;BMP180;23379;51.554;6.736;2023-11-21T11:06:51;101037.00;;;10.70
37536;BMP180;23379;51.554;6.736;2023-11-21T11:09:17;101139.00;;;10.50
37536;BMP180;23379;51.554;6.736;2023-11-21T11:11:42;101114.00;;;10.90
37536;BMP180;23379;51.554;6.736;2023-11-21T11:14:13;101135.00;;;11.00
37536;BMP180;23379;51.554;6.736;2023-11-21T11:16:40;101131.00;;;11.10
37536;BMP180;23379;51.554;6.736;2023-11-21T11:19:09;101103.00;;;11.00
37536;BMP180;23379;51.554;6.736;2023-11-21T11:24:33;101139.00;;;11.10
37536;BMP180;23379;51.554;6.736;2023-11-21T11:29:47;101131.00;;;11.30
37536;BMP180;23379;51.554;6.736;2023-11-21T11:35:06;101134.00;;;11.60
37536;BMP180;23379;51.554;6.736;2023-11-21T11:37:35;101136.00;;;11.70
37536;BMP180;23379;51.554;6.736;2023-11-21T11:40:00;101141.00;;;11.70
37536;BMP180;23379;51.554;6.736;2023-11-21T11:42:26;101157.00;;;11.70
37536;BMP180;23379;51.554;6.736;2023-11-21T11:44:52;101147.00;;;11.30
37536;BMP180;23379;51.554;6.736;2023-11-21T11:47:29;101146.00;;;11.30
37536;BMP180;23379;51.554;6.736;2023-11-21T11:50:09;101158.00;;;11.20
37536;BMP180;23379;51.554;6.736;2023-11-21T11:52:50;101142.00;;;11.50
37536;BMP180;23379;51.554;6.736;2023-11-21T11:55:17;101148.00;;;11.40
37536;BMP180;23379;51.554;6.736;2023-11-21T11:57:44;101148.00;;;11.70
37536;BMP180;23379;51.554;6.736;2023-11-21T12:02:55;101140.00;;;11.50
37536;BMP180;23379;51.554;6.736;2023-11-21T12:05:25;101140.00;;;11.50
37536;BMP180;23379;51.554;6.736;2023-11-21T12:07:57;101153.00;;;11.60
37536;BMP180;23379;51.554;6.736;2023-11-21T12:10:24;101134.00;;;12.10
37536;BMP180;23379;51.554;6.736;2023-11-21T12:12:52;101145.00;;;11.80
37536;BMP180;23379;51.554;6.736;2023-11-21T12:15:18;101159.00;;;12.00
37536;BMP180;23379;51.554;6.736;2023-11-21T12:17:45;101134.00;;;12.00
37536;BMP180;23379;51.554;6.736;2023-11-21T12:20:12;101112.00;;;11.90
37536;BMP180;23379;51.554;6.736;2023-11-21T12:25:08;101173.00;;;11.70
37536;BMP180;23379;51.554;6.736;2023-11-21T12:27:33;101179.00;;;11.40
37536;BMP180;23379;51.554;6.736;2023-11-21T12:29:59;101165.00;;;11.60
37536;BMP180;23379;51.554;6.736;2023-11-21T12:32:24;101186.00;;;11.70
37536;BMP180;23379;51.554;6.736;2023-11-21T12:34:51;101186.00;;;11.80
37536;BMP180;23379;51.554;6.736;2023-11-21T12:37:16;101181.00;;;11.70
37536;BMP180;23379;51.554;6.736;2023-11-21T12:39:42;101187.00;;;11.70
37536;BMP180;23379;51.554;6.736;2023-11-21T12:42:07;101193.00;;;11.50
37536;BMP180;23379;51.554;6.736;2023-11-21T12:44:33;101186.00;;;11.50
37536;BMP180;23379;51.554;6.736;2023-11-21T12:46:59;101189.00;;;11.30
37536;BMP180;23379;51.554;6.736;2023-11-21T12:49:24;101200.00;;;11.40
37536;BMP180;23379;51.554;6.736;2023-11-21T12:51:50;101214.00;;;11.20
37536;BMP180;23379;51.554;6.736;2023-11-21T12:54:15;101204.00;;;11.10
37536;BMP180;23379;51.554;6.736;2023-11-21T12:56:45;101195.00;;;11.30
37536;BMP180;23379;51.554;6.736;2023-11-21T12:59:12;101213.00;;;11.40
37536;BMP180;23379;51.554;6.736;2023-11-21T13:01:42;101217.00;;;11.00
37536;BMP180;23379;51.554;6.736;2023-11-21T13:04:08;101199.00;;;10.80
37536;BMP180;23379;51.554;6.736;2023-11-21T13:06:36;101205.00;;;10.90
37536;BMP180;23379;51.554;6.736;2023-11-21T13:09:07;101230.00;;;10.90
37536;BMP180;23379;51.554;6.736;2023-11-21T13:11:36;101219.00;;;11.10
37536;BMP180;23379;51.554;6.736;2023-11-21T13:14:02;101230.00;;;11.10
37536;BMP180;23379;51.554;6.736;2023-11-21T13:16:28;101217.00;;;11.00
37536;BMP180;23379;51.554;6.736;2023-11-21T13:18:55;101222.00;;;10.80
37536;BMP180;23379;51.554;6.736;2023-11-21T13:21:21;101239.00;;;10.70
37536;BMP180;23379;51.554;6.736;2023-11-21T13:23:47;101239.00;;;11.00
37536;BMP180;23379;51.554;6.736;2023-11-21T13:26:14;101191.00;;;10.90
37536;BMP180;23379;51.554;6.736;2023-11-21T13:28:40;101246.00;;;10.80
37536;BMP180;23379;51.554;6.736;2023-11-21T13:31:11;101228.00;;;10.80
37536;BMP180;23379;51.554;6.736;2023-11-21T13:33:47;101240.00;;;10.40
37536;BMP180;23379;51.554;6.736;2023-11-21T13:36:19;101225.00;;;10.50
37536;BMP180;23379;51.554;6.736;2023-11-21T13:38:48;101229.00;;;10.40
37536;BMP180;23379;51.554;6.736;2023-11-21T13:41:14;101241.00;;;10.20
37536;BMP180;23379;51.554;6.736;2023-11-21T13:43:40;101241.00;;;10.40
37536;BMP180;23379;51.554;6.736;2023-11-21T13:46:09;101240.00;;;10.20
37536;BMP180;23379;51.554;6.736;2023-11-21T13:48:46;101239.00;;;9.80
37536;BMP180;23379;51.554;6.736;2023-11-21T13:51:21;101239.00;;;10.30
37536;BMP180;23379;51.554;6.736;2023-11-21T13:53:55;101258.00;;;10.40
37536;BMP180;23379;51.554;6.736;2023-11-21T13:56:21;101253.00;;;10.20
37536;BMP180;23379;51.554;6.736;2023-11-21T13:58:49;101257.00;;;10.50
37536;BMP180;23379;51.554;6.736;2023-11-21T14:01:22;101270.00;;;10.40
37536;BMP180;23379;51.554;6.736;2023-11-21T14:04:01;101254.00;;;10.40
37536;BMP180;23379;51.554;6.736;2023-11-21T14:06:43;101263.00;;;10.40
37536;BMP180;23379;51.554;6.736;2023-11-21T14:09:18;101276.00;;;10.30
37536;BMP180;23379;51.554;6.736;2023-11-21T14:11:57;101276.00;;;10.10
37536;BMP180;23379;51.554;6.736;2023-11-21T14:14:27;101278.00;;;10.00